createdAt,value
2023-04-02T00:01:23.954Z,99229.19
2023-04-02T00:07:15.575Z,99240.34
2023-04-02T00:13:00.099Z,99243.88
2023-04-02T00:18:28.138Z,99250.44
2023-04-02T00:23:59.362Z,99261.22
2023-04-02T00:29:26.450Z,99271.09
2023-04-02T00:34:56.118Z,99278.34
2023-04-02T00:40:28.359Z,99280.59
2023-04-02T00:46:04.505Z,99289.81
2023-04-02T00:51:48.608Z,99286.72
2023-04-02T00:57:22.086Z,99295.22
2023-04-02T01:03:17.361Z,99308.28
2023-04-02T01:09:16.214Z,99312.72
2023-04-02T01:15:02.615Z,99312.81
2023-04-02T01:21:11.983Z,99315.97
2023-04-02T01:26:58.492Z,99333.00
2023-04-02T01:32:29.604Z,99338.44
2023-04-02T01:38:07.737Z,99347.25
2023-04-02T01:43:45.572Z,99359.06
2023-04-02T01:49:18.628Z,99365.78
2023-04-02T01:54:48.032Z,99368.53
2023-04-02T02:00:17.552Z,99370.88
2023-04-02T02:05:48.543Z,99372.22
2023-04-02T02:11:23.092Z,99381.25
2023-04-02T02:16:53.673Z,99387.00
2023-04-02T02:22:32.483Z,99402.50
2023-04-02T02:28:02.630Z,99414.31
2023-04-02T02:33:33.085Z,99421.59
2023-04-02T02:39:22.825Z,99428.34
2023-04-02T02:44:54.855Z,99445.72
2023-04-02T02:50:32.539Z,99451.13
2023-04-02T02:56:03.563Z,99457.19
2023-04-02T03:01:38.929Z,99460.63
2023-04-02T03:07:09.620Z,99485.13
2023-04-02T03:12:56.127Z,99488.09
2023-04-02T03:18:46.141Z,99494.88
2023-04-02T03:24:58.313Z,99501.34
2023-04-02T03:30:41.626Z,99512.44
2023-04-02T03:36:31.235Z,99532.72
2023-04-02T03:42:23.162Z,99535.50
2023-04-02T03:48:00.070Z,99550.72
2023-04-02T03:53:29.934Z,99560.91
2023-04-02T03:59:41.684Z,99570.22
2023-04-02T04:05:49.542Z,99592.56
2023-04-02T04:11:22.936Z,99593.41
2023-04-02T04:16:57.726Z,99612.09
2023-04-02T04:22:35.969Z,99624.84
2023-04-02T04:28:38.691Z,99624.44
2023-04-02T04:34:16.400Z,99644.88
2023-04-02T04:39:54.784Z,99652.41
2023-04-02T04:45:56.339Z,99658.38
2023-04-02T04:51:30.297Z,99675.41
2023-04-02T04:57:02.957Z,99685.94
2023-04-02T05:02:38.823Z,99692.09
2023-04-02T05:08:15.313Z,99702.84
2023-04-02T05:13:54.806Z,99715.34
2023-04-02T05:19:29.899Z,99720.94
2023-04-02T05:25:10.535Z,99735.00
2023-04-02T05:30:47.072Z,99743.84
2023-04-02T05:36:29.582Z,99743.84
2023-04-02T05:42:04.522Z,99752.22
2023-04-02T05:47:54.743Z,99765.94
2023-04-02T05:53:44.898Z,99767.44
2023-04-02T05:59:22.011Z,99777.84
2023-04-02T06:04:58.809Z,99778.41
2023-04-02T06:10:35.653Z,99790.53
2023-04-02T06:16:04.150Z,99805.88
2023-04-02T06:21:36.091Z,99808.69
2023-04-02T06:27:07.267Z,99826.72
2023-04-02T06:32:35.810Z,99827.59
2023-04-02T06:38:06.396Z,99832.53
2023-04-02T06:43:46.438Z,99839.81
2023-04-02T06:49:52.781Z,99849.72
2023-04-02T06:55:37.496Z,99868.78
2023-04-02T07:01:06.098Z,99876.59
2023-04-02T07:06:42.654Z,99877.16
2023-04-02T07:12:28.414Z,99897.56
2023-04-02T07:17:59.372Z,99905.66
2023-04-02T07:23:27.477Z,99914.88
2023-04-02T07:28:56.753Z,99925.34
2023-04-02T07:34:24.069Z,99928.50
2023-04-02T07:39:51.781Z,99921.44
2023-04-02T07:45:19.671Z,99944.88
2023-04-02T07:50:47.340Z,99947.50
2023-04-02T07:56:16.448Z,99956.75
2023-04-02T08:01:43.656Z,99970.38
2023-04-02T08:07:11.389Z,99978.81
2023-04-02T08:12:38.735Z,99988.31
2023-04-02T08:18:07.046Z,100002.00
2023-04-02T08:23:35.799Z,100008.94
2023-04-02T08:29:04.662Z,100019.69
2023-04-02T08:34:32.209Z,100021.47
2023-04-02T08:39:59.553Z,100036.91
2023-04-02T08:45:42.631Z,100043.75
2023-04-02T08:51:23.470Z,100040.63
2023-04-02T08:57:13.329Z,100047.31
2023-04-02T09:02:47.600Z,100050.44
2023-04-02T09:08:27.630Z,100069.81
2023-04-02T09:13:58.809Z,100059.88
2023-04-02T09:19:41.544Z,100064.88
2023-04-02T09:25:17.573Z,100074.28
2023-04-02T09:31:02.659Z,100080.16
2023-04-02T09:36:38.577Z,100088.72
2023-04-02T09:42:28.379Z,100097.38
2023-04-02T09:47:58.457Z,100108.06
2023-04-02T09:53:31.597Z,100124.53
2023-04-02T09:59:15.942Z,100120.97
2023-04-02T10:04:48.897Z,100134.41
2023-04-02T10:10:19.300Z,100153.88
2023-04-02T10:16:09.667Z,100154.25
2023-04-02T10:21:39.081Z,100161.31
2023-04-02T10:27:29.931Z,100158.34
2023-04-02T10:33:33.405Z,100170.34
2023-04-02T10:39:09.252Z,100178.63
2023-04-02T10:45:00.161Z,100185.91
2023-04-02T10:50:42.277Z,100174.22
2023-04-02T10:56:13.263Z,100191.50
2023-04-02T11:01:44.216Z,100192.72
2023-04-02T11:07:21.579Z,100191.72
2023-04-02T11:13:06.023Z,100208.56
2023-04-02T11:18:39.010Z,100226.72
2023-04-02T11:24:06.721Z,100232.56
2023-04-02T11:29:37.502Z,100231.69
2023-04-02T11:35:24.756Z,100236.13
2023-04-02T11:40:56.582Z,100243.66
2023-04-02T11:46:35.202Z,100259.06
2023-04-02T11:52:12.062Z,100251.16
2023-04-02T11:58:21.456Z,100263.00
2023-04-02T12:04:27.840Z,100282.22
2023-04-02T12:10:01.058Z,100284.09
2023-04-02T12:15:57.984Z,100289.34
2023-04-02T12:21:28.636Z,100291.47
2023-04-02T12:27:15.801Z,100298.94
2023-04-02T12:32:43.274Z,100306.88
2023-04-02T12:38:29.305Z,100316.34
2023-04-02T12:44:02.654Z,100309.94
2023-04-02T12:49:40.739Z,100312.63
2023-04-02T12:55:20.514Z,100321.38
2023-04-02T13:00:47.939Z,100328.41
2023-04-02T13:06:24.460Z,100330.78
2023-04-02T13:11:54.304Z,100341.34
2023-04-02T13:17:40.910Z,100339.63
2023-04-02T13:23:31.744Z,100345.72
2023-04-02T13:29:03.610Z,100344.31
2023-04-02T13:34:32.115Z,100349.94
2023-04-02T13:39:59.724Z,100344.69
2023-04-02T13:45:30.406Z,100356.97
2023-04-02T13:50:57.695Z,100366.63
2023-04-02T13:56:25.758Z,100382.44
2023-04-02T14:02:00.202Z,100386.97
2023-04-02T14:07:50.475Z,100380.69
2023-04-02T14:13:29.107Z,100390.63
2023-04-02T14:19:25.238Z,100389.25
2023-04-02T14:25:00.675Z,100399.69
2023-04-02T14:30:50.707Z,100407.53
2023-04-02T14:36:34.593Z,100411.16
2023-04-02T14:42:16.892Z,100407.88
2023-04-02T14:47:54.844Z,100426.69
2023-04-02T14:53:43.302Z,100431.41
2023-04-02T14:59:44.413Z,100438.53
2023-04-02T15:05:30.630Z,100432.44
2023-04-02T15:11:09.838Z,100444.34
2023-04-02T15:16:37.833Z,100458.41
2023-04-02T15:22:14.622Z,100447.63
2023-04-02T15:28:17.068Z,100454.22
2023-04-02T15:33:49.961Z,100457.06
2023-04-02T15:39:29.414Z,100466.66
2023-04-02T15:45:15.468Z,100469.94
2023-04-02T15:51:20.632Z,100474.25
2023-04-02T15:57:06.254Z,100488.56
2023-04-02T16:03:15.275Z,100492.97
2023-04-02T16:09:18.259Z,100498.94
2023-04-02T16:14:48.336Z,100503.53
2023-04-02T16:20:24.978Z,100506.25
2023-04-02T16:25:58.676Z,100522.03
2023-04-02T16:31:34.012Z,100528.94
2023-04-02T16:37:06.573Z,100535.84
2023-04-02T16:42:53.184Z,100546.16
2023-04-02T16:48:41.008Z,100550.22
2023-04-02T16:54:33.482Z,100563.22
2023-04-02T17:00:19.055Z,100570.75
2023-04-02T17:06:07.021Z,100584.00
2023-04-02T17:11:44.815Z,100596.47
2023-04-02T17:17:15.092Z,100603.25
2023-04-02T17:22:44.464Z,100610.94
2023-04-02T17:28:18.171Z,100620.47
2023-04-02T17:33:48.510Z,100622.00
2023-04-02T17:39:37.351Z,100621.09
2023-04-02T17:45:12.051Z,100628.53
2023-04-02T17:50:52.269Z,100627.72
2023-04-02T17:56:35.689Z,100650.91
2023-04-02T18:02:42.232Z,100652.94
2023-04-02T18:08:16.435Z,100663.56
2023-04-02T18:13:53.104Z,100672.69
2023-04-02T18:19:34.624Z,100681.81
2023-04-02T18:25:25.675Z,100694.16
2023-04-02T18:31:40.505Z,100706.22
2023-04-02T18:37:30.257Z,100712.25
2023-04-02T18:43:16.933Z,100722.31
2023-04-02T18:49:18.490Z,100723.53
2023-04-02T18:55:09.573Z,100735.41
2023-04-02T19:00:43.439Z,100739.81
2023-04-02T19:06:24.601Z,100750.22
2023-04-02T19:11:55.937Z,100744.28
2023-04-02T19:17:27.534Z,100749.09
2023-04-02T19:23:33.401Z,100754.84
2023-04-02T19:29:23.423Z,100761.41
2023-04-02T19:34:56.873Z,100754.94
2023-04-02T19:40:43.082Z,100762.97
2023-04-02T19:46:10.538Z,100774.47
2023-04-02T19:51:38.752Z,100772.00
2023-04-02T19:57:06.401Z,100780.88
2023-04-02T20:02:34.724Z,100777.41
2023-04-02T20:08:02.490Z,100780.19
2023-04-02T20:13:32.292Z,100780.41
2023-04-02T20:18:59.231Z,100777.81
2023-04-02T20:24:26.403Z,100802.78
2023-04-02T20:29:54.132Z,100793.91
2023-04-02T20:35:22.141Z,100808.94
2023-04-02T20:40:53.115Z,100818.41
2023-04-02T20:46:21.038Z,100819.72
2023-04-02T20:51:50.171Z,100828.44
2023-04-02T20:57:21.981Z,100828.56
2023-04-02T21:02:49.331Z,100830.06
2023-04-02T21:08:16.278Z,100838.69
2023-04-02T21:13:44.480Z,100839.44
2023-04-02T21:19:11.503Z,100856.91
2023-04-02T21:24:38.812Z,100857.00
2023-04-02T21:30:07.392Z,100866.88
2023-04-02T21:35:35.046Z,100867.34
2023-04-02T21:41:17.468Z,100870.16
2023-04-02T21:46:45.965Z,100864.78
2023-04-02T21:52:13.418Z,100866.97
2023-04-02T21:57:40.965Z,100875.13
2023-04-02T22:03:10.080Z,100881.44
2023-04-02T22:08:41.540Z,100877.34
2023-04-02T22:14:09.028Z,100882.78
2023-04-02T22:19:36.488Z,100889.19
2023-04-02T22:25:04.061Z,100899.88
2023-04-02T22:30:34.118Z,100907.56
2023-04-02T22:36:02.867Z,100895.75
2023-04-02T22:41:32.571Z,100899.38
2023-04-02T22:46:59.548Z,100904.66
2023-04-02T22:52:26.817Z,100901.97
2023-04-02T22:57:53.787Z,100911.28
2023-04-02T23:03:21.085Z,100905.28
2023-04-02T23:08:49.169Z,100910.50
2023-04-02T23:14:16.615Z,100918.94
2023-04-02T23:19:44.332Z,100919.16
2023-04-02T23:25:11.755Z,100929.69
2023-04-02T23:30:38.837Z,100944.97
2023-04-02T23:36:24.938Z,100951.44
2023-04-02T23:41:51.800Z,100945.72
2023-04-02T23:47:19.671Z,100955.97
2023-04-02T23:52:47.742Z,100956.63
2023-04-02T23:58:14.836Z,100952.97
